Time;durP1;ratioP1;P1;durP2;ratioP2;P2;SDS_P1;SDS_P2;PMS_P1;PMS_P2;Temp;Humidity;BMP_temperature;BMP_pressure;BME280_temperature;BME280_humidity;BME280_pressure;Samples;Min_cycle;Max_cycle;Signal;HPM_P1;HPM_P2
2021/04/08 00:00:34;;;;;;;2.17;1.27;;;2.10;99.90;;;;;;5052698;28;20212;-66
2021/04/08 00:03:01;;;;;;;1.52;0.98;;;2.10;99.90;;;;;;5052672;28;20664;-64
2021/04/08 00:05:29;;;;;;;9.32;1.73;;;2.10;99.90;;;;;;5052828;28;20192;-65
2021/04/08 00:07:56;;;;;;;1.98;1.85;;;2.10;99.90;;;;;;5062422;22;20192;-68
2021/04/08 00:10:23;;;;;;;14.55;2.97;;;2.10;99.90;;;;;;5011971;28;20206;-68
2021/04/08 00:12:50;;;;;;;7.43;1.73;;;2.10;99.90;;;;;;5011530;28;20187;-66
2021/04/08 00:15:18;;;;;;;2.65;1.02;;;2.20;99.90;;;;;;5011600;28;20174;-67
2021/04/08 00:17:45;;;;;;;3.10;1.60;;;2.20;99.90;;;;;;4996580;28;20229;-69
2021/04/08 00:20:18;;;;;;;2.38;1.13;;;2.30;99.90;;;;;;5015487;28;20565;-67
2021/04/08 00:22:46;;;;;;;2.17;1.67;;;2.30;99.90;;;;;;5015976;28;20242;-68
2021/04/08 00:25:14;;;;;;;7.50;1.88;;;2.40;99.90;;;;;;5016040;28;20170;-68
2021/04/08 00:27:42;;;;;;;16.50;1.77;;;2.40;99.90;;;;;;5015778;28;20210;-68
2021/04/08 00:30:10;;;;;;;9.52;2.00;;;2.40;99.90;;;;;;5015467;28;20536;-69
2021/04/08 00:32:38;;;;;;;3.30;2.58;;;2.40;99.90;;;;;;5016596;28;20213;-68
2021/04/08 00:35:06;;;;;;;2.95;1.85;;;2.50;99.90;;;;;;5015623;28;20206;-68
2021/04/08 00:37:33;;;;;;;5.80;0.90;;;2.50;99.90;;;;;;5015335;28;20209;-68
2021/04/08 00:40:05;;;;;;;7.32;1.55;;;2.50;99.90;;;;;;5015439;28;20182;-68
2021/04/08 00:42:33;;;;;;;3.78;2.45;;;2.50;99.90;;;;;;5015374;28;20190;-68
2021/04/08 00:45:00;;;;;;;5.15;1.98;;;2.50;99.90;;;;;;5015162;28;20170;-69
2021/04/08 00:47:27;;;;;;;3.30;1.70;;;2.50;99.90;;;;;;5015188;28;20214;-68
2021/04/08 00:49:54;;;;;;;2.97;1.40;;;2.50;99.90;;;;;;5014913;28;20198;-68
2021/04/08 00:52:23;;;;;;;3.70;2.58;;;2.50;99.90;;;;;;5015508;28;20186;-68
2021/04/08 00:54:50;;;;;;;2.75;0.82;;;2.50;99.90;;;;;;5016056;28;20197;-68
2021/04/08 00:57:18;;;;;;;8.82;1.60;;;2.50;99.90;;;;;;5015451;28;20217;-68
2021/04/08 00:59:46;;;;;;;2.05;1.23;;;2.50;99.90;;;;;;5014925;28;20178;-67
2021/04/08 01:02:13;;;;;;;4.75;2.42;;;2.50;99.90;;;;;;5014801;28;20536;-66
2021/04/08 01:04:40;;;;;;;4.25;2.30;;;2.50;99.90;;;;;;4997321;28;20229;-68
2021/04/08 01:07:08;;;;;;;2.70;2.05;;;2.50;99.90;;;;;;5014937;28;20198;-68
2021/04/08 01:09:36;;;;;;;3.55;2.03;;;2.50;99.90;;;;;;5014654;28;20218;-68
2021/04/08 01:12:03;;;;;;;9.40;2.00;;;2.50;99.90;;;;;;4997797;28;20182;-68
2021/04/08 01:14:32;;;;;;;10.50;1.60;;;2.50;1.00;;;;;;5014470;28;20186;-68
2021/04/08 01:17:03;;;;;;;5.88;2.80;;;2.50;99.90;;;;;;5014446;28;20572;-68
2021/04/08 01:20:07;;;;;;;1.90;1.55;;;2.50;1.00;;;;;;5014535;28;20171;-68
2021/04/08 01:22:55;;;;;;;3.00;2.17;;;2.50;1.00;;;;;;4992359;28;20205;-68
2021/04/08 01:25:43;;;;;;;2.78;1.98;;;2.50;1.00;;;;;;4996415;28;20204;-68
2021/04/08 01:28:20;;;;;;;8.57;2.25;;;2.50;1.00;;;;;;5013350;28;20209;-68
2021/04/08 01:30:49;;;;;;;2.17;1.70;;;2.50;30.80;;;;;;5014639;28;20174;-68
2021/04/08 01:33:20;;;;;;;6.15;2.60;;;2.50;1.00;;;;;;5014398;28;20197;-68
2021/04/08 01:35:49;;;;;;;8.07;1.80;;;2.40;1.00;;;;;;5014813;28;20175;-68
2021/04/08 01:38:22;;;;;;;3.45;1.73;;;2.50;1.00;;;;;;5014390;28;20553;-69
2021/04/08 01:40:51;;;;;;;3.03;2.10;;;2.50;1.00;;;;;;5014480;28;20175;-70
2021/04/08 01:43:23;;;;;;;9.25;1.92;;;2.50;1.00;;;;;;5014632;28;20265;-68
2021/04/08 01:45:53;;;;;;;1.48;0.93;;;2.50;1.00;;;;;;5014241;28;20190;-67
2021/04/08 01:48:21;;;;;;;2.92;1.52;;;2.50;99.90;;;;;;5014034;28;20198;-68
2021/04/08 01:50:55;;;;;;;5.63;2.40;;;2.50;99.90;;;;;;5014476;28;20265;-68
2021/04/08 01:53:23;;;;;;;2.88;1.75;;;2.50;99.90;;;;;;5014182;28;20204;-68
2021/04/08 01:55:51;;;;;;;2.08;1.80;;;2.50;99.90;;;;;;5014121;28;20190;-68
2021/04/08 01:58:22;;;;;;;2.85;1.70;;;2.50;99.90;;;;;;4995833;28;20209;-68
2021/04/08 02:00:51;;;;;;;10.13;2.55;;;2.50;99.90;;;;;;5014191;28;20189;-68
2021/04/08 02:03:18;;;;;;;3.35;1.73;;;2.50;99.90;;;;;;5013945;28;20201;-68
2021/04/08 02:05:45;;;;;;;2.40;1.75;;;2.50;99.90;;;;;;5014223;28;20201;-68
2021/04/08 02:08:13;;;;;;;2.22;1.60;;;2.50;99.90;;;;;;5013603;28;20218;-68
2021/04/08 02:10:41;;;;;;;6.15;1.73;;;2.50;99.90;;;;;;5013324;28;20218;-67
2021/04/08 02:13:11;;;;;;;4.43;2.20;;;2.60;99.90;;;;;;5014099;28;20186;-68
2021/04/08 02:15:39;;;;;;;8.43;3.67;;;2.60;99.90;;;;;;5014427;28;20205;-68
2021/04/08 02:18:09;;;;;;;10.90;2.90;;;2.60;99.90;;;;;;5014657;28;20710;-68
2021/04/08 02:20:37;;;;;;;3.05;2.72;;;2.60;99.90;;;;;;5014542;28;20182;-67
2021/04/08 02:23:06;;;;;;;5.63;2.85;;;2.50;99.90;;;;;;5014488;28;20178;-68
2021/04/08 02:25:35;;;;;;;3.45;2.25;;;2.50;99.90;;;;;;5014690;28;20825;-68
2021/04/08 02:28:05;;;;;;;7.00;2.40;;;2.60;99.90;;;;;;5014262;28;20218;-68
2021/04/08 02:30:45;;;;;;;3.20;1.48;;;2.50;99.90;;;;;;5013869;28;20706;-68
2021/04/08 02:33:19;;;;;;;7.15;3.03;;;2.60;99.90;;;;;;5014193;28;20205;-67
2021/04/08 02:35:46;;;;;;;11.35;3.03;;;2.60;99.90;;;;;;5013738;28;20189;-68
2021/04/08 02:38:14;;;;;;;6.63;2.85;;;2.50;99.90;;;;;;5014366;28;20212;-68
2021/04/08 02:40:41;;;;;;;4.35;2.05;;;2.50;99.90;;;;;;5015411;28;20323;-66
2021/04/08 02:43:10;;;;;;;7.30;2.67;;;2.50;99.90;;;;;;5017569;28;20193;-68
2021/04/08 02:45:37;;;;;;;4.70;2.45;;;2.60;99.90;;;;;;5017067;28;20183;-67
2021/04/08 02:48:07;;;;;;;2.80;1.33;;;2.60;99.90;;;;;;5017489;28;20613;-67
2021/04/08 02:50:35;;;;;;;2.85;2.08;;;2.60;99.90;;;;;;5017338;28;20198;-69
2021/04/08 02:53:09;;;;;;;5.78;3.10;;;2.60;99.90;;;;;;5016422;28;20556;-68
2021/04/08 02:55:41;;;;;;;7.07;2.05;;;2.60;99.90;;;;;;5014181;28;20178;-68
2021/04/08 02:58:11;;;;;;;1.83;1.60;;;2.60;99.90;;;;;;5016127;28;20206;-68
2021/04/08 03:00:47;;;;;;;6.25;2.60;;;2.60;99.90;;;;;;5014219;28;20175;-68
2021/04/08 03:03:19;;;;;;;7.30;2.80;;;2.60;1.00;;;;;;5014492;28;20588;-66
2021/04/08 03:05:48;;;;;;;3.05;2.38;;;2.60;99.90;;;;;;5017278;28;20185;-69
2021/04/08 03:08:19;;;;;;;3.10;2.20;;;2.60;99.90;;;;;;5016604;28;20223;-69
2021/04/08 03:10:47;;;;;;;2.75;1.70;;;2.50;99.90;;;;;;5015848;28;20209;-67
2021/04/08 03:13:17;;;;;;;3.65;2.17;;;2.50;99.90;;;;;;5016366;28;20186;-68
2021/04/08 03:15:45;;;;;;;5.20;2.00;;;2.50;99.90;;;;;;5014953;28;20221;-68
2021/04/08 03:18:15;;;;;;;4.60;1.88;;;2.40;99.90;;;;;;5014209;28;20206;-68
2021/04/08 03:20:50;;;;;;;2.55;1.77;;;2.40;99.90;;;;;;5014491;28;20170;-68
2021/04/08 03:23:18;;;;;;;2.65;2.10;;;2.50;99.90;;;;;;5013987;28;20297;-68
2021/04/08 03:25:49;;;;;;;4.43;3.25;;;2.50;99.90;;;;;;5014185;28;20190;-68
2021/04/08 03:28:17;;;;;;;6.95;3.20;;;2.50;99.90;;;;;;5017602;28;20541;-68
2021/04/08 03:30:45;;;;;;;2.60;2.20;;;2.50;99.90;;;;;;5018364;28;20201;-69
2021/04/08 03:33:14;;;;;;;1.92;1.73;;;2.50;99.90;;;;;;5017389;28;20186;-67
2021/04/08 03:35:44;;;;;;;6.55;2.53;;;2.50;99.90;;;;;;5002000;28;20175;-67
2021/04/08 03:38:15;;;;;;;2.28;2.03;;;2.50;99.90;;;;;;5014671;28;20206;-68
2021/04/08 03:40:42;;;;;;;6.00;2.28;;;2.50;99.90;;;;;;5014896;28;20184;-68
2021/04/08 03:43:11;;;;;;;3.05;2.30;;;2.50;99.90;;;;;;5014089;28;20178;-68
2021/04/08 03:45:38;;;;;;;6.00;3.10;;;2.50;99.90;;;;;;4995985;28;20221;-68
2021/04/08 03:48:08;;;;;;;3.75;2.13;;;2.20;99.90;;;;;;5013630;28;20210;-67
2021/04/08 03:50:36;;;;;;;8.43;3.25;;;2.00;99.90;;;;;;5013567;28;20242;-68
2021/04/08 03:53:04;;;;;;;2.47;1.60;;;1.90;99.90;;;;;;5016790;28;20174;-68
2021/04/08 03:55:34;;;;;;;5.72;3.03;;;1.90;99.90;;;;;;5016946;28;20260;-67
2021/04/08 03:58:06;;;;;;;8.55;3.60;;;1.90;99.90;;;;;;4999793;28;20214;-67
2021/04/08 04:00:34;;;;;;;4.68;2.33;;;1.70;99.90;;;;;;5017010;28;20170;-68
2021/04/08 04:03:02;;;;;;;4.40;2.20;;;1.60;99.90;;;;;;5017104;28;20530;-68
2021/04/08 04:05:31;;;;;;;4.25;2.28;;;1.60;99.90;;;;;;5018614;28;20166;-66
2021/04/08 04:08:02;;;;;;;7.68;2.53;;;1.50;99.90;;;;;;5018230;28;20245;-67
2021/04/08 04:10:34;;;;;;;7.88;3.72;;;1.60;99.90;;;;;;5015152;28;20226;-68
2021/04/08 04:13:03;;;;;;;5.10;3.13;;;1.60;99.90;;;;;;5017129;28;20178;-67
2021/04/08 04:15:32;;;;;;;3.30;2.55;;;1.60;99.90;;;;;;5016000;28;20214;-68
2021/04/08 04:18:03;;;;;;;3.72;2.80;;;1.60;99.90;;;;;;5016822;28;20229;-67
2021/04/08 04:20:30;;;;;;;9.93;3.70;;;1.60;99.90;;;;;;5016870;28;20175;-67
2021/04/08 04:22:57;;;;;;;9.35;4.30;;;1.60;99.90;;;;;;5016695;28;20236;-67
2021/04/08 04:25:24;;;;;;;4.80;3.30;;;1.70;99.90;;;;;;5015536;28;20178;-68
2021/04/08 04:27:52;;;;;;;6.50;3.88;;;1.70;99.90;;;;;;5015439;28;20364;-68
2021/04/08 04:30:21;;;;;;;5.05;2.63;;;1.70;99.90;;;;;;5015510;28;20222;-68
2021/04/08 04:32:48;;;;;;;7.80;2.67;;;1.80;99.90;;;;;;4997794;28;20178;-68
2021/04/08 04:35:17;;;;;;;5.35;2.72;;;1.80;99.90;;;;;;4997552;28;20213;-68
2021/04/08 04:37:44;;;;;;;17.85;4.97;;;1.90;99.90;;;;;;5009801;28;20544;-68
2021/04/08 04:40:12;;;;;;;6.07;3.38;;;1.90;99.90;;;;;;5015465;28;20190;-68
2021/04/08 04:42:39;;;;;;;4.63;3.08;;;1.90;99.90;;;;;;5015242;28;20182;-68
2021/04/08 04:45:07;;;;;;;7.95;2.70;;;2.00;99.90;;;;;;5015658;28;20178;-67
2021/04/08 04:47:35;;;;;;;4.93;2.85;;;2.00;99.90;;;;;;5017694;28;20214;-68
2021/04/08 04:50:03;;;;;;;5.00;2.03;;;2.00;99.90;;;;;;5017458;28;20206;-66
2021/04/08 04:52:30;;;;;;;10.00;2.20;;;2.10;99.90;;;;;;5015815;28;20206;-68
2021/04/08 04:54:57;;;;;;;5.93;4.25;;;2.20;99.90;;;;;;5016391;28;20241;-68
2021/04/08 04:57:25;;;;;;;14.60;2.38;;;2.20;99.90;;;;;;5016235;28;20686;-68
2021/04/08 04:59:52;;;;;;;3.80;1.67;;;2.20;99.90;;;;;;5016761;28;20663;-69
2021/04/08 05:02:19;;;;;;;5.63;2.42;;;2.20;99.90;;;;;;5018537;28;20563;-69
2021/04/08 05:04:47;;;;;;;24.75;3.58;;;2.20;99.90;;;;;;5017875;28;20467;-67
2021/04/08 05:07:14;;;;;;;8.98;2.58;;;2.20;99.90;;;;;;5018784;28;20573;-67
2021/04/08 05:09:41;;;;;;;13.13;3.58;;;2.30;99.90;;;;;;5018961;28;20585;-67
2021/04/08 05:12:09;;;;;;;11.07;3.60;;;2.30;99.90;;;;;;5016489;28;20390;-67
2021/04/08 05:14:36;;;;;;;6.10;2.83;;;2.30;99.90;;;;;;5015534;28;20175;-66
2021/04/08 05:17:03;;;;;;;3.15;2.45;;;2.30;99.90;;;;;;5000208;28;20226;-67
2021/04/08 05:19:31;;;;;;;6.85;2.90;;;2.30;99.90;;;;;;5015388;28;20615;-69
2021/04/08 05:21:59;;;;;;;8.02;3.95;;;2.30;99.90;;;;;;5014750;28;20602;-69
2021/04/08 05:24:30;;;;;;;6.85;2.60;;;2.40;99.90;;;;;;4997481;28;20187;-67
2021/04/08 05:26:57;;;;;;;2.38;1.75;;;2.40;99.90;;;;;;5014207;28;20698;-69
2021/04/08 05:29:24;;;;;;;5.45;3.55;;;2.40;99.90;;;;;;5015524;28;20214;-68
2021/04/08 05:31:51;;;;;;;5.72;2.38;;;2.40;99.90;;;;;;5016586;28;20249;-67
2021/04/08 05:34:19;;;;;;;5.80;2.15;;;2.40;99.90;;;;;;5017121;28;20719;-69
2021/04/08 05:36:46;;;;;;;4.70;2.17;;;2.40;99.90;;;;;;5016724;28;20244;-67
2021/04/08 05:39:14;;;;;;;12.13;3.20;;;2.40;99.90;;;;;;5015448;28;20621;-67
2021/04/08 05:41:42;;;;;;;6.78;2.42;;;2.40;99.90;;;;;;5015231;28;20702;-68
2021/04/08 05:44:09;;;;;;;12.40;2.08;;;2.40;99.90;;;;;;5015792;28;20200;-68
2021/04/08 05:46:36;;;;;;;8.95;3.60;;;2.40;99.90;;;;;;5015926;28;20209;-68
2021/04/08 05:49:03;;;;;;;4.95;2.83;;;2.40;99.90;;;;;;5017025;28;20519;-68
2021/04/08 05:51:30;;;;;;;3.05;1.65;;;2.40;99.90;;;;;;5015723;28;20180;-67
2021/04/08 05:54:00;;;;;;;11.45;4.22;;;2.40;99.90;;;;;;4998161;28;20573;-69
2021/04/08 05:56:28;;;;;;;7.20;3.42;;;2.40;99.90;;;;;;5014310;28;20178;-68
2021/04/08 05:58:55;;;;;;;6.18;2.08;;;2.50;99.90;;;;;;4996470;28;20224;-68
2021/04/08 06:01:22;;;;;;;4.35;2.55;;;2.50;99.90;;;;;;5014637;28;20171;-69
2021/04/08 06:03:56;;;;;;;1.80;1.35;;;2.50;99.90;;;;;;5014089;28;20181;-66
2021/04/08 06:06:24;;;;;;;12.02;3.28;;;2.60;99.90;;;;;;5012758;28;20214;-69
2021/04/08 06:08:51;;;;;;;3.33;2.30;;;2.50;99.90;;;;;;5101138;22;574319;-65
2021/04/08 06:11:18;;;;;;;4.00;1.75;;;2.60;99.90;;;;;;5053557;28;20624;-64
2021/04/08 06:13:48;;;;;;;13.98;5.03;;;2.60;99.90;;;;;;5053031;28;20273;-64
2021/04/08 06:16:16;;;;;;;8.93;2.63;;;2.70;99.90;;;;;;5053277;28;20177;-65
2021/04/08 06:18:46;;;;;;;5.60;2.42;;;2.80;99.90;;;;;;5053185;28;20284;-65
2021/04/08 06:21:13;;;;;;;4.03;2.20;;;2.80;99.90;;;;;;5053607;28;20173;-64
2021/04/08 06:23:41;;;;;;;12.13;3.05;;;2.90;99.90;;;;;;5053457;28;20177;-65
2021/04/08 06:26:09;;;;;;;7.53;3.30;;;3.00;99.90;;;;;;5060407;28;20199;-66
2021/04/08 06:28:36;;;;;;;3.08;2.08;;;3.10;99.90;;;;;;5064844;28;20213;-64
2021/04/08 06:31:04;;;;;;;3.20;2.67;;;3.10;99.90;;;;;;5053933;28;20198;-64
2021/04/08 06:33:31;;;;;;;5.68;3.03;;;3.00;99.90;;;;;;5053474;28;20191;-65
2021/04/08 06:35:58;;;;;;;8.50;3.13;;;3.00;99.90;;;;;;5053153;28;20197;-65
2021/04/08 06:38:25;;;;;;;4.72;2.67;;;3.00;99.90;;;;;;5052039;28;20694;-65
2021/04/08 06:40:54;;;;;;;4.05;2.60;;;2.90;99.90;;;;;;5053393;28;20192;-65
2021/04/08 06:43:21;;;;;;;4.90;2.13;;;2.90;99.90;;;;;;5053145;28;20189;-65
2021/04/08 06:45:49;;;;;;;10.77;3.53;;;3.00;99.90;;;;;;5052876;28;20240;-65
2021/04/08 06:48:22;;;;;;;2.92;2.60;;;3.00;99.90;;;;;;5053054;28;20303;-64
2021/04/08 06:50:52;;;;;;;3.72;2.13;;;3.00;99.90;;;;;;5052746;28;20200;-64
2021/04/08 06:53:20;;;;;;;3.00;2.10;;;3.10;99.90;;;;;;5052684;28;20177;-65
2021/04/08 06:55:48;;;;;;;4.18;2.05;;;3.10;99.90;;;;;;5052381;28;20338;-65
2021/04/08 06:58:16;;;;;;;6.95;2.60;;;3.20;99.90;;;;;;5052157;28;20212;-66
2021/04/08 07:01:07;;;;;;;4.57;2.88;;;3.20;99.90;;;;;;5052751;28;20183;-66
2021/04/08 07:03:35;;;;;;;3.55;2.25;;;3.30;99.90;;;;;;5032484;28;20665;-65
2021/04/08 07:06:03;;;;;;;5.60;3.47;;;3.40;99.90;;;;;;5048088;28;20181;-65
2021/04/08 07:08:31;;;;;;;5.15;3.35;;;3.60;99.90;;;;;;5051101;28;20653;-67
2021/04/08 07:10:58;;;;;;;7.95;4.22;;;3.70;99.90;;;;;;5045891;28;20189;-66
2021/04/08 07:13:27;;;;;;;11.68;4.68;;;3.60;99.90;;;;;;5032667;28;20221;-66
2021/04/08 07:15:55;;;;;;;10.40;2.80;;;3.40;99.90;;;;;;5032832;28;20174;-64
2021/04/08 07:18:24;;;;;;;2.63;1.70;;;3.50;99.90;;;;;;5051268;28;20200;-63
2021/04/08 07:20:52;;;;;;;16.02;3.05;;;3.70;99.90;;;;;;5035585;28;20189;-66
2021/04/08 07:23:19;;;;;;;7.95;3.10;;;3.90;99.90;;;;;;5030954;28;20184;-65
2021/04/08 07:26:09;;;;;;;8.93;3.42;;;3.80;99.90;;;;;;5044332;28;20189;-65
2021/04/08 07:28:39;;;;;;;3.05;2.58;;;3.70;99.90;;;;;;5048440;28;20741;-65
2021/04/08 07:31:23;;;;;;;4.57;3.28;;;3.80;99.90;;;;;;5043855;28;20658;-65
2021/04/08 07:33:51;;;;;;;5.40;3.17;;;3.80;99.90;;;;;;5031768;28;20177;-66
2021/04/08 07:36:27;;;;;;;7.63;3.25;;;3.90;99.90;;;;;;5032019;28;20189;-65
2021/04/08 07:39:00;;;;;;;2.55;2.00;;;4.10;99.90;;;;;;5032051;28;20646;-64
2021/04/08 07:41:29;;;;;;;3.33;2.58;;;4.20;99.90;;;;;;5039733;28;20173;-65
2021/04/08 07:44:01;;;;;;;9.32;2.92;;;4.40;99.90;;;;;;5051993;28;20208;-67
2021/04/08 07:46:33;;;;;;;2.13;1.92;;;4.60;99.90;;;;;;5052307;28;20203;-66
2021/04/08 07:49:00;;;;;;;9.30;2.80;;;4.60;99.90;;;;;;5051702;28;20195;-66
2021/04/08 07:51:30;;;;;;;4.25;2.38;;;4.70;99.90;;;;;;5051912;28;20201;-65
2021/04/08 07:54:12;;;;;;;1.65;1.50;;;4.70;99.90;;;;;;5051664;28;20180;-66
2021/04/08 07:56:39;;;;;;;7.75;2.78;;;4.60;99.90;;;;;;5051609;28;20754;-67
2021/04/08 07:59:24;;;;;;;3.78;2.40;;;4.60;99.90;;;;;;5051674;28;20185;-66
2021/04/08 08:01:59;;;;;;;6.95;2.15;;;4.70;99.90;;;;;;5052030;28;20259;-67
2021/04/08 08:04:28;;;;;;;2.97;1.50;;;4.80;99.90;;;;;;5051773;28;20184;-66
2021/04/08 08:06:57;;;;;;;7.93;2.08;;;4.80;99.90;;;;;;5051957;28;20236;-66
2021/04/08 08:09:27;;;;;;;4.20;1.75;;;4.90;99.90;;;;;;5051569;28;20279;-66
2021/04/08 08:11:56;;;;;;;4.97;1.77;;;4.90;99.90;;;;;;5050467;28;20654;-66
2021/04/08 08:14:34;;;;;;;7.45;2.40;;;4.80;99.90;;;;;;5051810;28;20177;-66
2021/04/08 08:17:03;;;;;;;4.55;2.08;;;5.00;99.90;;;;;;5051399;28;20208;-67
2021/04/08 08:19:31;;;;;;;6.70;1.90;;;5.00;99.90;;;;;;5051533;28;20185;-66
2021/04/08 08:22:00;;;;;;;2.05;1.48;;;4.90;99.90;;;;;;5051415;28;20177;-66
2021/04/08 08:24:28;;;;;;;3.20;1.75;;;4.80;99.90;;;;;;5051739;28;20553;-65
2021/04/08 08:26:55;;;;;;;2.38;1.52;;;4.90;99.90;;;;;;5051694;28;20221;-68
2021/04/08 08:29:25;;;;;;;20.15;2.35;;;5.10;99.90;;;;;;5050210;28;20685;-67
2021/04/08 08:31:54;;;;;;;4.75;1.45;;;5.40;99.90;;;;;;5051499;28;20173;-66
2021/04/08 08:34:24;;;;;;;6.53;1.45;;;5.50;99.90;;;;;;5051616;28;20177;-66
2021/04/08 08:36:52;;;;;;;5.10;1.45;;;5.50;99.90;;;;;;5051398;28;20212;-66
2021/04/08 08:39:22;;;;;;;1.75;1.30;;;5.50;99.90;;;;;;5054998;28;20181;-67
2021/04/08 08:41:50;;;;;;;1.98;1.17;;;5.60;99.90;;;;;;5055090;28;20574;-66
2021/04/08 08:44:20;;;;;;;5.20;2.17;;;5.50;99.90;;;;;;5055289;28;20189;-67
2021/04/08 08:46:50;;;;;;;3.50;1.48;;;5.50;99.90;;;;;;5055404;28;20217;-68
2021/04/08 08:49:21;;;;;;;9.88;2.13;;;5.90;99.90;;;;;;5054910;28;20177;-65
2021/04/08 08:51:50;;;;;;;6.40;2.47;;;6.10;99.90;;;;;;5054627;28;20200;-65
2021/04/08 08:54:18;;;;;;;9.38;1.80;;;6.10;99.90;;;;;;5054981;28;20580;-66
2021/04/08 08:56:47;;;;;;;3.50;1.60;;;5.70;99.90;;;;;;5054596;28;20231;-65
2021/04/08 08:59:16;;;;;;;8.27;1.60;;;5.70;99.90;;;;;;5054749;28;20541;-66
2021/04/08 09:01:43;;;;;;;4.10;1.52;;;5.70;99.90;;;;;;5054723;28;20184;-65
2021/04/08 09:04:11;;;;;;;5.90;1.40;;;5.70;99.90;;;;;;5054463;28;20711;-65
2021/04/08 09:06:56;;;;;;;5.32;1.52;;;5.50;99.90;;;;;;5054486;28;20223;-66
2021/04/08 09:09:26;;;;;;;1.83;1.50;;;5.80;99.90;;;;;;5054339;28;20193;-66
2021/04/08 09:11:55;;;;;;;3.40;1.98;;;5.90;99.90;;;;;;5054050;28;20208;-65
2021/04/08 09:14:23;;;;;;;11.90;2.20;;;5.90;99.90;;;;;;5054714;28;20193;-65
2021/04/08 09:16:51;;;;;;;1.92;1.08;;;5.90;99.90;;;;;;5054641;28;20208;-65
2021/04/08 09:19:38;;;;;;;5.38;2.17;;;5.90;99.90;;;;;;5054450;28;20192;-64
2021/04/08 09:22:10;;;;;;;3.70;1.80;;;6.10;99.90;;;;;;5053274;28;20303;-66
2021/04/08 09:24:40;;;;;;;4.40;1.15;;;6.20;99.90;;;;;;5054570;28;20173;-65
2021/04/08 09:27:09;;;;;;;2.72;1.15;;;6.20;99.90;;;;;;5054015;28;20220;-67
2021/04/08 09:29:55;;;;;;;6.28;1.20;;;6.40;99.90;;;;;;5042135;28;20189;-66
2021/04/08 09:32:28;;;;;;;2.60;1.60;;;6.60;99.90;;;;;;5034202;28;20173;-68
2021/04/08 09:35:13;;;;;;;4.03;1.60;;;6.50;99.90;;;;;;5034285;28;20178;-65
2021/04/08 09:38:20;;;;;;;2.08;1.52;;;6.50;99.90;;;;;;5034000;28;20225;-64
2021/04/08 09:41:03;;;;;;;1.40;1.02;;;6.30;99.90;;;;;;5032884;28;20556;-65
2021/04/08 09:43:32;;;;;;;1.55;1.10;;;6.50;99.90;;;;;;5033521;28;20667;-67
2021/04/08 09:46:05;;;;;;;2.80;1.38;;;6.60;99.90;;;;;;5033877;28;20216;-65
2021/04/08 09:48:52;;;;;;;2.38;1.30;;;7.00;99.90;;;;;;5032815;28;20201;-65
2021/04/08 09:51:33;;;;;;;3.35;1.05;;;7.20;99.90;;;;;;5033197;28;20193;-65
2021/04/08 09:54:05;;;;;;;4.30;1.55;;;7.00;99.90;;;;;;5033123;28;20597;-65
2021/04/08 09:56:47;;;;;;;5.57;1.63;;;6.90;99.90;;;;;;5048688;28;20209;-65
2021/04/08 09:59:17;;;;;;;4.75;1.80;;;6.70;99.90;;;;;;5033668;28;20644;-66
2021/04/08 10:01:46;;;;;;;1.98;0.98;;;6.60;99.90;;;;;;5048475;28;20185;-65
2021/04/08 10:04:19;;;;;;;7.88;1.67;;;6.80;99.90;;;;;;5043847;28;20604;-68
2021/04/08 10:06:58;;;;;;;2.40;1.88;;;6.70;99.90;;;;;;5069802;28;20704;-66
2021/04/08 10:09:25;;;;;;;2.00;1.00;;;6.60;99.90;;;;;;5056849;28;20695;-67
2021/04/08 10:11:52;;;;;;;3.72;1.67;;;6.70;99.90;;;;;;5053635;28;20254;-64
2021/04/08 10:14:22;;;;;;;7.82;2.05;;;6.60;99.90;;;;;;5054091;28;20181;-65
2021/04/08 10:17:00;;;;;;;4.22;1.05;;;6.60;99.90;;;;;;5039751;28;20580;-65
2021/04/08 10:19:32;;;;;;;1.98;0.90;;;6.70;99.90;;;;;;5034418;28;20204;-65
2021/04/08 10:22:00;;;;;;;1.88;1.15;;;6.80;99.90;;;;;;5034858;28;20177;-65
2021/04/08 10:24:34;;;;;;;3.10;1.83;;;6.90;99.90;;;;;;5034878;28;20197;-67
2021/04/08 10:27:10;;;;;;;5.25;1.65;;;7.20;99.90;;;;;;5033638;28;20215;-65
2021/04/08 10:29:38;;;;;;;4.95;1.23;;;7.20;99.90;;;;;;5033247;28;20340;-65
2021/04/08 10:32:06;;;;;;;2.33;1.10;;;7.50;99.90;;;;;;5032962;28;20288;-65
2021/04/08 10:34:35;;;;;;;4.55;1.17;;;7.40;99.90;;;;;;5031748;28;20201;-65
2021/04/08 10:37:04;;;;;;;2.47;1.42;;;7.00;99.90;;;;;;5032734;28;20221;-65
2021/04/08 10:39:33;;;;;;;1.75;1.20;;;6.70;99.90;;;;;;5031690;28;20235;-67
2021/04/08 10:42:04;;;;;;;2.10;0.93;;;6.70;99.90;;;;;;5031564;28;20276;-65
2021/04/08 10:44:35;;;;;;;2.65;1.38;;;7.10;99.90;;;;;;5030460;28;20220;-66
2021/04/08 10:47:12;;;;;;;4.57;1.67;;;7.40;99.90;;;;;;5031444;28;20213;-67
2021/04/08 10:49:44;;;;;;;2.22;1.63;;;7.60;99.90;;;;;;5031805;28;20650;-68
2021/04/08 10:52:13;;;;;;;1.38;1.00;;;7.70;99.90;;;;;;5031434;28;20197;-67
2021/04/08 10:54:42;;;;;;;2.72;1.55;;;7.60;99.90;;;;;;5031992;28;20181;-65
2021/04/08 10:57:09;;;;;;;2.33;1.00;;;7.30;99.90;;;;;;5031452;28;20215;-65
2021/04/08 10:59:39;;;;;;;6.35;1.88;;;7.10;99.90;;;;;;5031723;28;20188;-67
2021/04/08 11:02:25;;;;;;;2.20;1.20;;;7.10;99.90;;;;;;5030980;28;20284;-67
2021/04/08 11:04:56;;;;;;;2.30;1.05;;;7.30;99.90;;;;;;5031497;28;20178;-67
2021/04/08 11:07:25;;;;;;;2.97;1.35;;;7.50;99.90;;;;;;5031496;28;20225;-67
2021/04/08 11:10:06;;;;;;;3.83;1.17;;;7.70;99.90;;;;;;5030164;28;20671;-65
2021/04/08 11:12:34;;;;;;;2.33;1.70;;;7.90;99.90;;;;;;5030921;28;20189;-67
2021/04/08 11:15:02;;;;;;;4.25;1.10;;;7.90;99.90;;;;;;5031852;28;20549;-66
2021/04/08 11:17:31;;;;;;;2.75;1.02;;;8.00;99.90;;;;;;5031215;28;20212;-66
2021/04/08 11:19:58;;;;;;;3.70;1.10;;;8.10;99.90;;;;;;5031291;28;20595;-65
2021/04/08 11:22:28;;;;;;;3.95;1.02;;;7.80;99.90;;;;;;5029703;28;20203;-68
2021/04/08 11:24:57;;;;;;;3.40;1.27;;;7.70;99.90;;;;;;5031230;28;20231;-67
2021/04/08 11:27:27;;;;;;;5.75;1.20;;;7.40;99.90;;;;;;5031636;28;20220;-66
2021/04/08 11:29:54;;;;;;;3.42;1.23;;;7.10;99.90;;;;;;5031461;28;20186;-67
2021/04/08 11:32:23;;;;;;;2.28;1.10;;;7.10;99.90;;;;;;5030950;28;20192;-66
2021/04/08 11:34:55;;;;;;;6.30;1.17;;;7.40;99.90;;;;;;5031107;28;20177;-66
2021/04/08 11:37:33;;;;;;;1.50;1.02;;;7.30;99.90;;;;;;5031966;28;20272;-66
2021/04/08 11:40:01;;;;;;;6.72;1.30;;;7.00;99.90;;;;;;5031498;28;20730;-67
2021/04/08 11:42:33;;;;;;;1.88;1.35;;;7.00;99.90;;;;;;5031133;28;20304;-65
2021/04/08 11:45:21;;;;;;;1.88;1.00;;;7.20;99.90;;;;;;5029698;28;20193;-67
2021/04/08 11:48:02;;;;;;;1.35;0.82;;;7.50;99.90;;;;;;5030939;28;20205;-67
2021/04/08 11:50:35;;;;;;;6.72;1.40;;;7.60;99.90;;;;;;5032246;28;20225;-66
2021/04/08 11:53:05;;;;;;;1.83;1.13;;;7.70;99.90;;;;;;5050539;28;20189;-66
2021/04/08 11:55:38;;;;;;;1.92;1.33;;;7.80;99.90;;;;;;5052545;28;20691;-66
2021/04/08 11:58:06;;;;;;;1.80;1.00;;;7.60;99.90;;;;;;5050717;28;20695;-67
2021/04/08 12:00:35;;;;;;;2.13;1.02;;;7.70;99.90;;;;;;5052188;28;20173;-66
2021/04/08 12:03:20;;;;;;;8.68;1.40;;;8.20;99.90;;;;;;5051676;28;20173;-66
2021/04/08 12:05:49;;;;;;;7.60;1.42;;;8.30;99.90;;;;;;5050474;28;20193;-66
2021/04/08 12:08:36;;;;;;;2.28;1.25;;;8.70;99.90;;;;;;5049508;28;20282;-67
2021/04/08 12:11:04;;;;;;;2.65;1.10;;;8.70;99.90;;;;;;5051746;28;20684;-68
2021/04/08 12:13:31;;;;;;;2.15;1.63;;;8.10;99.90;;;;;;5053658;28;20195;-67
2021/04/08 12:15:58;;;;;;;3.28;1.00;;;7.90;99.90;;;;;;5050016;28;20343;-66
2021/04/08 12:18:28;;;;;;;4.35;1.88;;;8.00;99.90;;;;;;5037548;28;20213;-68
2021/04/08 12:20:58;;;;;;;4.13;1.00;;;8.00;99.90;;;;;;5049537;28;20193;-67
2021/04/08 12:23:34;;;;;;;2.10;0.98;;;8.30;99.90;;;;;;5056476;28;20194;-67
2021/04/08 12:26:02;;;;;;;8.57;1.33;;;8.50;99.90;;;;;;5047727;28;20211;-68
2021/04/08 12:28:29;;;;;;;6.05;0.70;;;8.60;99.90;;;;;;5057594;28;20608;-66
2021/04/08 12:30:59;;;;;;;7.43;1.10;;;8.60;99.90;;;;;;5056301;28;20208;-64
2021/04/08 12:33:28;;;;;;;3.30;1.98;;;8.50;99.90;;;;;;5056874;28;20183;-65
2021/04/08 12:35:58;;;;;;;3.95;0.98;;;8.20;99.90;;;;;;5057002;28;20235;-67
2021/04/08 12:38:27;;;;;;;4.47;1.10;;;8.10;99.90;;;;;;5056880;28;20219;-65
2021/04/08 12:40:55;;;;;;;3.25;1.50;;;8.20;99.90;;;;;;5056914;28;20176;-66
2021/04/08 12:43:23;;;;;;;5.03;1.45;;;8.10;99.90;;;;;;5056432;28;20209;-66
2021/04/08 12:45:50;;;;;;;3.75;1.75;;;7.80;99.90;;;;;;5056530;28;20193;-67
2021/04/08 12:48:19;;;;;;;7.25;1.75;;;7.70;99.90;;;;;;5055586;28;20220;-66
2021/04/08 12:50:48;;;;;;;1.40;1.02;;;7.90;99.90;;;;;;5056413;28;20221;-66
2021/04/08 12:53:17;;;;;;;1.08;0.77;;;8.10;99.90;;;;;;5056828;28;20177;-66
2021/04/08 12:55:44;;;;;;;3.70;1.85;;;8.30;99.90;;;;;;5057391;28;20189;-68
2021/04/08 12:58:11;;;;;;;7.60;1.23;;;8.30;99.90;;;;;;5055995;28;20215;-65
2021/04/08 13:00:39;;;;;;;2.05;0.80;;;8.40;99.90;;;;;;5055054;28;20586;-65
2021/04/08 13:03:06;;;;;;;2.83;1.67;;;8.50;99.90;;;;;;5056655;28;20683;-65
2021/04/08 13:05:33;;;;;;;5.10;1.00;;;7.90;99.90;;;;;;5056695;28;20207;-65
2021/04/08 13:08:01;;;;;;;1.65;1.17;;;7.90;99.90;;;;;;5056057;28;20295;-64
2021/04/08 13:10:29;;;;;;;1.98;0.70;;;7.80;99.90;;;;;;5056330;28;20181;-66
2021/04/08 13:12:56;;;;;;;2.22;0.98;;;7.90;99.90;;;;;;5055885;28;20177;-66